sensor_id;sensor_type;location;lat;lon;timestamp;P1;durP1;ratioP1;P2;durP2;ratioP2
53927;SDS011;39837;47.630;18.822;2022-09-09T00:06:08;1.55;;;1.45;;
53927;SDS011;39837;47.630;18.822;2022-09-09T00:11:28;1.30;;;1.30;;
53927;SDS011;39837;47.630;18.822;2022-09-09T00:17:08;1.52;;;1.52;;
53927;SDS011;39837;47.630;18.822;2022-09-09T00:19:59;1.60;;;1.60;;
53927;SDS011;39837;47.630;18.822;2022-09-09T00:29:05;1.40;;;1.40;;
53927;SDS011;39837;47.630;18.822;2022-09-09T00:32:00;3.33;;;2.03;;
53927;SDS011;39837;47.630;18.822;2022-09-09T00:34:53;1.73;;;1.63;;
53927;SDS011;39837;47.630;18.822;2022-09-09T00:37:40;1.88;;;1.88;;
53927;SDS011;39837;47.630;18.822;2022-09-09T01:02:13;1.53;;;1.53;;
53927;SDS011;39837;47.630;18.822;2022-09-09T01:08:25;1.25;;;1.25;;
53927;SDS011;39837;47.630;18.822;2022-09-09T01:11:37;1.63;;;1.63;;
53927;SDS011;39837;47.630;18.822;2022-09-09T01:17:27;2.03;;;1.92;;
53927;SDS011;39837;47.630;18.822;2022-09-09T01:23:53;2.13;;;2.03;;
53927;SDS011;39837;47.630;18.822;2022-09-09T01:26:45;2.10;;;2.00;;
53927;SDS011;39837;47.630;18.822;2022-09-09T01:29:30;2.42;;;2.17;;
53927;SDS011;39837;47.630;18.822;2022-09-09T01:38:11;2.50;;;2.28;;
53927;SDS011;39837;47.630;18.822;2022-09-09T01:40:56;2.13;;;2.03;;
53927;SDS011;39837;47.630;18.822;2022-09-09T01:43:42;2.78;;;2.58;;
53927;SDS011;39837;47.630;18.822;2022-09-09T01:46:26;3.97;;;2.47;;
53927;SDS011;39837;47.630;18.822;2022-09-09T01:49:11;2.00;;;1.90;;
53927;SDS011;39837;47.630;18.822;2022-09-09T01:51:57;1.93;;;1.93;;
53927;SDS011;39837;47.630;18.822;2022-09-09T01:54:41;1.90;;;1.90;;
53927;SDS011;39837;47.630;18.822;2022-09-09T01:57:27;1.83;;;1.73;;
53927;SDS011;39837;47.630;18.822;2022-09-09T02:00:15;2.40;;;2.10;;
53927;SDS011;39837;47.630;18.822;2022-09-09T02:08:46;2.25;;;2.15;;
53927;SDS011;39837;47.630;18.822;2022-09-09T02:11:33;2.50;;;2.40;;
53927;SDS011;39837;47.630;18.822;2022-09-09T02:14:22;2.35;;;2.25;;
53927;SDS011;39837;47.630;18.822;2022-09-09T02:17:12;2.88;;;2.67;;
53927;SDS011;39837;47.630;18.822;2022-09-09T02:19:59;2.22;;;2.13;;
53927;SDS011;39837;47.630;18.822;2022-09-09T02:22:54;2.22;;;2.13;;
53927;SDS011;39837;47.630;18.822;2022-09-09T02:25:39;2.53;;;2.33;;
53927;SDS011;39837;47.630;18.822;2022-09-09T02:28:24;4.25;;;2.53;;
53927;SDS011;39837;47.630;18.822;2022-09-09T02:31:10;2.47;;;2.38;;
53927;SDS011;39837;47.630;18.822;2022-09-09T02:33:55;2.65;;;2.45;;
53927;SDS011;39837;47.630;18.822;2022-09-09T02:36:41;2.47;;;2.38;;
53927;SDS011;39837;47.630;18.822;2022-09-09T02:39:26;2.78;;;2.58;;
53927;SDS011;39837;47.630;18.822;2022-09-09T02:42:10;2.65;;;2.45;;
53927;SDS011;39837;47.630;18.822;2022-09-09T02:44:54;2.80;;;2.70;;
53927;SDS011;39837;47.630;18.822;2022-09-09T02:47:39;2.58;;;2.38;;
53927;SDS011;39837;47.630;18.822;2022-09-09T02:53:19;2.50;;;2.25;;
53927;SDS011;39837;47.630;18.822;2022-09-09T02:56:08;2.50;;;2.40;;
53927;SDS011;39837;47.630;18.822;2022-09-09T02:58:56;3.45;;;2.50;;
53927;SDS011;39837;47.630;18.822;2022-09-09T03:01:40;2.63;;;2.53;;
53927;SDS011;39837;47.630;18.822;2022-09-09T03:04:25;2.38;;;2.28;;
53927;SDS011;39837;47.630;18.822;2022-09-09T03:07:09;3.15;;;2.95;;
53927;SDS011;39837;47.630;18.822;2022-09-09T03:09:53;2.75;;;2.65;;
53927;SDS011;39837;47.630;18.822;2022-09-09T03:12:38;2.97;;;2.70;;
53927;SDS011;39837;47.630;18.822;2022-09-09T03:15:22;7.85;;;2.75;;
53927;SDS011;39837;47.630;18.822;2022-09-09T03:18:06;2.42;;;2.17;;
53927;SDS011;39837;47.630;18.822;2022-09-09T03:20:50;2.72;;;2.63;;
53927;SDS011;39837;47.630;18.822;2022-09-09T03:23:34;2.60;;;2.50;;
53927;SDS011;39837;47.630;18.822;2022-09-09T03:26:18;13.60;;;3.70;;
53927;SDS011;39837;47.630;18.822;2022-09-09T03:29:03;3.10;;;2.85;;
53927;SDS011;39837;47.630;18.822;2022-09-09T03:31:50;2.83;;;2.63;;
53927;SDS011;39837;47.630;18.822;2022-09-09T03:34:34;2.53;;;2.42;;
53927;SDS011;39837;47.630;18.822;2022-09-09T03:37:18;2.70;;;2.60;;
53927;SDS011;39837;47.630;18.822;2022-09-09T03:40:03;3.42;;;2.58;;
53927;SDS011;39837;47.630;18.822;2022-09-09T03:42:47;3.03;;;2.70;;
53927;SDS011;39837;47.630;18.822;2022-09-09T03:45:32;2.92;;;2.75;;
53927;SDS011;39837;47.630;18.822;2022-09-09T03:48:17;2.65;;;2.47;;
53927;SDS011;39837;47.630;18.822;2022-09-09T03:51:01;2.92;;;2.78;;
53927;SDS011;39837;47.630;18.822;2022-09-09T03:53:46;3.10;;;2.90;;
53927;SDS011;39837;47.630;18.822;2022-09-09T03:56:30;3.03;;;2.83;;
53927;SDS011;39837;47.630;18.822;2022-09-09T03:59:15;11.05;;;2.90;;
53927;SDS011;39837;47.630;18.822;2022-09-09T04:01:59;3.00;;;2.80;;
53927;SDS011;39837;47.630;18.822;2022-09-09T04:04:44;2.95;;;2.67;;
53927;SDS011;39837;47.630;18.822;2022-09-09T04:07:28;3.63;;;3.25;;
53927;SDS011;39837;47.630;18.822;2022-09-09T04:10:12;3.38;;;3.08;;
53927;SDS011;39837;47.630;18.822;2022-09-09T04:12:57;3.53;;;3.20;;
53927;SDS011;39837;47.630;18.822;2022-09-09T04:15:40;3.58;;;3.38;;
53927;SDS011;39837;47.630;18.822;2022-09-09T04:18:25;4.88;;;2.92;;
53927;SDS011;39837;47.630;18.822;2022-09-09T04:21:10;3.70;;;3.33;;
53927;SDS011;39837;47.630;18.822;2022-09-09T04:23:55;3.70;;;3.17;;
53927;SDS011;39837;47.630;18.822;2022-09-09T04:26:40;3.20;;;2.90;;
53927;SDS011;39837;47.630;18.822;2022-09-09T04:29:25;3.65;;;3.42;;
53927;SDS011;39837;47.630;18.822;2022-09-09T04:32:10;3.10;;;2.97;;
53927;SDS011;39837;47.630;18.822;2022-09-09T04:34:54;7.10;;;3.85;;
53927;SDS011;39837;47.630;18.822;2022-09-09T04:37:38;4.63;;;3.42;;
53927;SDS011;39837;47.630;18.822;2022-09-09T04:40:22;3.20;;;3.00;;
53927;SDS011;39837;47.630;18.822;2022-09-09T04:43:06;11.80;;;3.10;;
53927;SDS011;39837;47.630;18.822;2022-09-09T04:45:50;4.65;;;3.28;;
53927;SDS011;39837;47.630;18.822;2022-09-09T04:48:34;4.45;;;3.22;;
53927;SDS011;39837;47.630;18.822;2022-09-09T04:51:18;3.58;;;3.35;;
53927;SDS011;39837;47.630;18.822;2022-09-09T04:54:02;3.70;;;3.40;;
53927;SDS011;39837;47.630;18.822;2022-09-09T04:56:46;3.05;;;2.85;;
53927;SDS011;39837;47.630;18.822;2022-09-09T04:59:30;3.42;;;3.17;;
53927;SDS011;39837;47.630;18.822;2022-09-09T05:02:14;5.43;;;3.53;;
53927;SDS011;39837;47.630;18.822;2022-09-09T05:04:59;4.93;;;3.90;;
53927;SDS011;39837;47.630;18.822;2022-09-09T05:07:43;3.55;;;3.25;;
53927;SDS011;39837;47.630;18.822;2022-09-09T05:10:27;4.55;;;3.30;;
53927;SDS011;39837;47.630;18.822;2022-09-09T05:13:11;3.45;;;3.22;;
53927;SDS011;39837;47.630;18.822;2022-09-09T05:15:55;3.00;;;2.80;;
53927;SDS011;39837;47.630;18.822;2022-09-09T05:18:39;3.03;;;2.92;;
53927;SDS011;39837;47.630;18.822;2022-09-09T05:21:24;5.53;;;3.40;;
53927;SDS011;39837;47.630;18.822;2022-09-09T05:24:12;3.80;;;3.50;;
53927;SDS011;39837;47.630;18.822;2022-09-09T05:26:55;2.95;;;2.80;;
53927;SDS011;39837;47.630;18.822;2022-09-09T05:32:29;3.75;;;2.70;;
53927;SDS011;39837;47.630;18.822;2022-09-09T05:35:17;3.33;;;3.13;;
53927;SDS011;39837;47.630;18.822;2022-09-09T05:38:02;2.90;;;2.80;;
53927;SDS011;39837;47.630;18.822;2022-09-09T05:40:49;4.53;;;3.03;;
53927;SDS011;39837;47.630;18.822;2022-09-09T05:43:33;3.03;;;2.83;;
53927;SDS011;39837;47.630;18.822;2022-09-09T05:46:20;2.88;;;2.78;;
53927;SDS011;39837;47.630;18.822;2022-09-09T05:51:49;5.43;;;3.35;;
53927;SDS011;39837;47.630;18.822;2022-09-09T05:54:34;3.63;;;2.53;;
53927;SDS011;39837;47.630;18.822;2022-09-09T05:57:18;2.85;;;2.65;;
53927;SDS011;39837;47.630;18.822;2022-09-09T06:00:03;4.25;;;2.78;;
53927;SDS011;39837;47.630;18.822;2022-09-09T06:02:51;3.75;;;2.85;;
53927;SDS011;39837;47.630;18.822;2022-09-09T06:05:36;3.63;;;3.33;;
53927;SDS011;39837;47.630;18.822;2022-09-09T06:08:20;6.15;;;2.90;;
53927;SDS011;39837;47.630;18.822;2022-09-09T06:11:08;2.83;;;2.65;;
53927;SDS011;39837;47.630;18.822;2022-09-09T06:13:53;2.90;;;2.70;;
53927;SDS011;39837;47.630;18.822;2022-09-09T06:16:37;3.10;;;2.90;;
53927;SDS011;39837;47.630;18.822;2022-09-09T06:19:21;5.38;;;3.22;;
53927;SDS011;39837;47.630;18.822;2022-09-09T06:24:53;3.08;;;2.88;;
53927;SDS011;39837;47.630;18.822;2022-09-09T06:27:37;3.38;;;3.17;;
53927;SDS011;39837;47.630;18.822;2022-09-09T06:30:21;4.13;;;3.83;;
53927;SDS011;39837;47.630;18.822;2022-09-09T06:33:05;3.97;;;3.67;;
53927;SDS011;39837;47.630;18.822;2022-09-09T06:35:52;4.43;;;4.03;;
53927;SDS011;39837;47.630;18.822;2022-09-09T06:38:37;3.25;;;3.03;;
53927;SDS011;39837;47.630;18.822;2022-09-09T06:41:22;3.08;;;2.90;;
53927;SDS011;39837;47.630;18.822;2022-09-09T06:44:09;10.68;;;3.42;;
53927;SDS011;39837;47.630;18.822;2022-09-09T06:46:55;4.07;;;3.28;;
53927;SDS011;39837;47.630;18.822;2022-09-09T06:49:39;3.25;;;3.00;;
53927;SDS011;39837;47.630;18.822;2022-09-09T06:52:22;2.60;;;2.50;;
53927;SDS011;39837;47.630;18.822;2022-09-09T06:55:08;3.42;;;3.17;;
53927;SDS011;39837;47.630;18.822;2022-09-09T06:57:52;3.65;;;3.33;;
53927;SDS011;39837;47.630;18.822;2022-09-09T07:00:37;6.43;;;3.20;;
53927;SDS011;39837;47.630;18.822;2022-09-09T07:03:22;3.43;;;3.17;;
53927;SDS011;39837;47.630;18.822;2022-09-09T07:06:06;7.55;;;3.60;;
53927;SDS011;39837;47.630;18.822;2022-09-09T07:08:55;3.78;;;3.47;;
53927;SDS011;39837;47.630;18.822;2022-09-09T07:11:46;2.80;;;2.70;;
53927;SDS011;39837;47.630;18.822;2022-09-09T07:14:37;2.67;;;2.58;;
53927;SDS011;39837;47.630;18.822;2022-09-09T07:17:21;1.92;;;1.90;;
53927;SDS011;39837;47.630;18.822;2022-09-09T07:20:05;1.88;;;1.70;;
53927;SDS011;39837;47.630;18.822;2022-09-09T07:22:51;2.15;;;2.00;;
53927;SDS011;39837;47.630;18.822;2022-09-09T07:25:43;1.75;;;1.73;;
53927;SDS011;39837;47.630;18.822;2022-09-09T07:28:29;1.88;;;1.80;;
53927;SDS011;39837;47.630;18.822;2022-09-09T07:31:15;3.20;;;2.08;;
53927;SDS011;39837;47.630;18.822;2022-09-09T07:34:04;3.55;;;2.25;;
53927;SDS011;39837;47.630;18.822;2022-09-09T07:36:49;6.85;;;2.53;;
53927;SDS011;39837;47.630;18.822;2022-09-09T07:39:33;2.95;;;2.47;;
53927;SDS011;39837;47.630;18.822;2022-09-09T07:42:17;14.07;;;2.35;;
53927;SDS011;39837;47.630;18.822;2022-09-09T07:45:01;3.08;;;2.60;;
53927;SDS011;39837;47.630;18.822;2022-09-09T07:47:45;2.20;;;2.10;;
53927;SDS011;39837;47.630;18.822;2022-09-09T07:50:29;1.55;;;1.55;;
53927;SDS011;39837;47.630;18.822;2022-09-09T07:53:13;13.25;;;1.23;;
53927;SDS011;39837;47.630;18.822;2022-09-09T07:56:08;10.82;;;1.95;;
53927;SDS011;39837;47.630;18.822;2022-09-09T07:58:55;2.42;;;1.30;;
53927;SDS011;39837;47.630;18.822;2022-09-09T08:01:44;2.33;;;1.50;;
53927;SDS011;39837;47.630;18.822;2022-09-09T08:04:31;1.23;;;1.23;;
53927;SDS011;39837;47.630;18.822;2022-09-09T08:07:15;1.35;;;1.25;;
53927;SDS011;39837;47.630;18.822;2022-09-09T08:10:00;2.75;;;1.88;;
53927;SDS011;39837;47.630;18.822;2022-09-09T08:12:44;8.23;;;2.72;;
53927;SDS011;39837;47.630;18.822;2022-09-09T08:15:28;1.35;;;1.35;;
53927;SDS011;39837;47.630;18.822;2022-09-09T08:18:14;1.10;;;1.10;;
53927;SDS011;39837;47.630;18.822;2022-09-09T08:20:58;1.27;;;1.20;;
53927;SDS011;39837;47.630;18.822;2022-09-09T08:23:50;1.08;;;1.08;;
53927;SDS011;39837;47.630;18.822;2022-09-09T08:26:36;0.80;;;0.80;;
53927;SDS011;39837;47.630;18.822;2022-09-09T08:29:22;0.95;;;0.95;;
53927;SDS011;39837;47.630;18.822;2022-09-09T08:34:50;0.80;;;0.80;;
53927;SDS011;39837;47.630;18.822;2022-09-09T08:37:34;1.08;;;0.90;;
53927;SDS011;39837;47.630;18.822;2022-09-09T08:40:20;0.70;;;0.70;;
53927;SDS011;39837;47.630;18.822;2022-09-09T08:43:06;0.63;;;0.63;;
53927;SDS011;39837;47.630;18.822;2022-09-09T08:45:55;3.70;;;1.23;;
53927;SDS011;39837;47.630;18.822;2022-09-09T08:48:56;1.70;;;1.20;;
53927;SDS011;39837;47.630;18.822;2022-09-09T08:51:43;1.50;;;1.10;;
53927;SDS011;39837;47.630;18.822;2022-09-09T08:54:27;0.98;;;0.98;;
53927;SDS011;39837;47.630;18.822;2022-09-09T08:57:21;0.93;;;0.93;;
53927;SDS011;39837;47.630;18.822;2022-09-09T09:00:10;0.70;;;0.70;;
53927;SDS011;39837;47.630;18.822;2022-09-09T09:02:59;4.85;;;0.65;;
53927;SDS011;39837;47.630;18.822;2022-09-09T09:08:59;0.80;;;0.80;;
53927;SDS011;39837;47.630;18.822;2022-09-09T09:11:47;1.55;;;0.70;;
53927;SDS011;39837;47.630;18.822;2022-09-09T09:14:35;0.77;;;0.77;;
53927;SDS011;39837;47.630;18.822;2022-09-09T09:17:21;1.08;;;0.98;;
53927;SDS011;39837;47.630;18.822;2022-09-09T09:20:11;0.70;;;0.70;;
53927;SDS011;39837;47.630;18.822;2022-09-09T09:22:57;0.50;;;0.50;;
53927;SDS011;39837;47.630;18.822;2022-09-09T09:25:44;4.68;;;1.17;;
53927;SDS011;39837;47.630;18.822;2022-09-09T09:28:31;0.60;;;0.60;;
53927;SDS011;39837;47.630;18.822;2022-09-09T09:31:16;1.20;;;0.70;;
53927;SDS011;39837;47.630;18.822;2022-09-09T09:34:02;0.90;;;0.82;;
53927;SDS011;39837;47.630;18.822;2022-09-09T09:36:52;0.80;;;0.77;;
53927;SDS011;39837;47.630;18.822;2022-09-09T09:39:37;0.77;;;0.77;;
53927;SDS011;39837;47.630;18.822;2022-09-09T09:42:23;0.80;;;0.80;;
53927;SDS011;39837;47.630;18.822;2022-09-09T09:45:13;0.70;;;0.70;;
53927;SDS011;39837;47.630;18.822;2022-09-09T09:48:05;0.70;;;0.70;;
53927;SDS011;39837;47.630;18.822;2022-09-09T09:50:53;0.85;;;0.85;;
53927;SDS011;39837;47.630;18.822;2022-09-09T09:53:38;0.98;;;0.95;;
53927;SDS011;39837;47.630;18.822;2022-09-09T09:56:27;0.52;;;0.52;;
53927;SDS011;39837;47.630;18.822;2022-09-09T09:59:23;0.52;;;0.52;;
53927;SDS011;39837;47.630;18.822;2022-09-09T10:02:23;0.60;;;0.60;;
53927;SDS011;39837;47.630;18.822;2022-09-09T10:05:29;0.77;;;0.77;;
53927;SDS011;39837;47.630;18.822;2022-09-09T10:08:15;0.50;;;0.50;;
53927;SDS011;39837;47.630;18.822;2022-09-09T10:14:04;2.67;;;1.17;;
53927;SDS011;39837;47.630;18.822;2022-09-09T10:17:00;4.38;;;0.50;;
53927;SDS011;39837;47.630;18.822;2022-09-09T10:20:12;0.60;;;0.60;;
53927;SDS011;39837;47.630;18.822;2022-09-09T10:26:39;1.23;;;1.15;;
53927;SDS011;39837;47.630;18.822;2022-09-09T10:36:38;0.82;;;0.82;;
53927;SDS011;39837;47.630;18.822;2022-09-09T10:42:18;0.90;;;0.90;;
53927;SDS011;39837;47.630;18.822;2022-09-09T10:53:36;5.82;;;1.08;;
53927;SDS011;39837;47.630;18.822;2022-09-09T10:56:28;1.20;;;1.08;;
53927;SDS011;39837;47.630;18.822;2022-09-09T10:59:14;4.05;;;0.80;;
53927;SDS011;39837;47.630;18.822;2022-09-09T11:05:41;0.80;;;0.80;;
53927;SDS011;39837;47.630;18.822;2022-09-09T11:08:29;0.68;;;0.68;;
53927;SDS011;39837;47.630;18.822;2022-09-09T11:11:21;0.80;;;0.80;;
53927;SDS011;39837;47.630;18.822;2022-09-09T11:19:44;0.70;;;0.70;;
53927;SDS011;39837;47.630;18.822;2022-09-09T11:22:39;0.70;;;0.70;;
53927;SDS011;39837;47.630;18.822;2022-09-09T11:25:38;0.65;;;0.65;;
53927;SDS011;39837;47.630;18.822;2022-09-09T11:28:27;1.65;;;0.65;;
53927;SDS011;39837;47.630;18.822;2022-09-09T11:34:20;0.70;;;0.70;;
53927;SDS011;39837;47.630;18.822;2022-09-09T11:40:24;0.88;;;0.80;;
53927;SDS011;39837;47.630;18.822;2022-09-09T11:43:19;0.60;;;0.60;;
53927;SDS011;39837;47.630;18.822;2022-09-09T11:46:05;0.60;;;0.60;;
53927;SDS011;39837;47.630;18.822;2022-09-09T11:48:58;1.00;;;1.00;;
53927;SDS011;39837;47.630;18.822;2022-09-09T11:51:43;0.55;;;0.55;;
53927;SDS011;39837;47.630;18.822;2022-09-09T11:57:22;0.70;;;0.70;;
53927;SDS011;39837;47.630;18.822;2022-09-09T12:00:35;0.80;;;0.80;;
53927;SDS011;39837;47.630;18.822;2022-09-09T12:06:30;2.75;;;0.70;;
53927;SDS011;39837;47.630;18.822;2022-09-09T12:12:06;0.95;;;0.80;;
53927;SDS011;39837;47.630;18.822;2022-09-09T12:14:58;0.70;;;0.70;;
53927;SDS011;39837;47.630;18.822;2022-09-09T12:17:50;0.70;;;0.70;;
53927;SDS011;39837;47.630;18.822;2022-09-09T12:20:36;0.70;;;0.70;;
53927;SDS011;39837;47.630;18.822;2022-09-09T12:23:27;5.05;;;0.82;;
53927;SDS011;39837;47.630;18.822;2022-09-09T12:30:02;0.88;;;0.80;;
53927;SDS011;39837;47.630;18.822;2022-09-09T12:32:58;2.72;;;2.53;;
53927;SDS011;39837;47.630;18.822;2022-09-09T12:35:57;0.93;;;0.93;;
53927;SDS011;39837;47.630;18.822;2022-09-09T12:38:41;0.80;;;0.80;;
53927;SDS011;39837;47.630;18.822;2022-09-09T12:44:11;0.65;;;0.65;;
53927;SDS011;39837;47.630;18.822;2022-09-09T12:47:00;0.60;;;0.60;;
53927;SDS011;39837;47.630;18.822;2022-09-09T12:49:45;0.88;;;0.88;;
53927;SDS011;39837;47.630;18.822;2022-09-09T12:52:34;0.80;;;0.80;;
53927;SDS011;39837;47.630;18.822;2022-09-09T12:55:21;0.80;;;0.80;;
53927;SDS011;39837;47.630;18.822;2022-09-09T12:58:11;0.80;;;0.80;;
53927;SDS011;39837;47.630;18.822;2022-09-09T13:00:58;0.65;;;0.65;;
53927;SDS011;39837;47.630;18.822;2022-09-09T13:06:31;0.90;;;0.90;;
53927;SDS011;39837;47.630;18.822;2022-09-09T13:11:59;0.70;;;0.70;;
53927;SDS011;39837;47.630;18.822;2022-09-09T13:14:44;0.63;;;0.63;;
53927;SDS011;39837;47.630;18.822;2022-09-09T13:17:31;3.50;;;1.15;;
53927;SDS011;39837;47.630;18.822;2022-09-09T13:20:18;0.95;;;0.55;;
53927;SDS011;39837;47.630;18.822;2022-09-09T13:23:03;0.68;;;0.68;;
53927;SDS011;39837;47.630;18.822;2022-09-09T13:25:54;0.70;;;0.70;;
53927;SDS011;39837;47.630;18.822;2022-09-09T13:29:09;0.77;;;0.77;;
53927;SDS011;39837;47.630;18.822;2022-09-09T13:32:06;5.88;;;0.98;;
53927;SDS011;39837;47.630;18.822;2022-09-09T13:34:59;4.30;;;1.33;;
53927;SDS011;39837;47.630;18.822;2022-09-09T13:37:45;3.17;;;0.98;;
53927;SDS011;39837;47.630;18.822;2022-09-09T13:40:29;0.80;;;0.80;;
53927;SDS011;39837;47.630;18.822;2022-09-09T13:43:18;0.70;;;0.70;;
53927;SDS011;39837;47.630;18.822;2022-09-09T13:46:19;1.13;;;0.65;;
53927;SDS011;39837;47.630;18.822;2022-09-09T13:52:02;2.75;;;0.82;;
53927;SDS011;39837;47.630;18.822;2022-09-09T13:54:56;2.92;;;0.70;;
53927;SDS011;39837;47.630;18.822;2022-09-09T13:58:03;0.70;;;0.70;;
53927;SDS011;39837;47.630;18.822;2022-09-09T14:00:47;0.60;;;0.60;;
53927;SDS011;39837;47.630;18.822;2022-09-09T14:03:31;0.95;;;0.95;;
53927;SDS011;39837;47.630;18.822;2022-09-09T14:06:15;0.60;;;0.60;;
53927;SDS011;39837;47.630;18.822;2022-09-09T14:08:59;0.88;;;0.88;;
53927;SDS011;39837;47.630;18.822;2022-09-09T14:11:44;0.57;;;0.57;;
53927;SDS011;39837;47.630;18.822;2022-09-09T14:17:13;0.70;;;0.70;;
53927;SDS011;39837;47.630;18.822;2022-09-09T14:19:58;0.70;;;0.70;;
53927;SDS011;39837;47.630;18.822;2022-09-09T14:22:42;0.80;;;0.80;;
53927;SDS011;39837;47.630;18.822;2022-09-09T14:25:27;1.10;;;1.10;;
53927;SDS011;39837;47.630;18.822;2022-09-09T14:28:12;0.88;;;0.88;;
53927;SDS011;39837;47.630;18.822;2022-09-09T14:33:45;0.70;;;0.70;;
53927;SDS011;39837;47.630;18.822;2022-09-09T14:36:29;1.00;;;1.00;;
53927;SDS011;39837;47.630;18.822;2022-09-09T14:39:13;0.73;;;0.60;;
53927;SDS011;39837;47.630;18.822;2022-09-09T14:41:57;0.70;;;0.70;;
53927;SDS011;39837;47.630;18.822;2022-09-09T14:44:41;0.70;;;0.70;;
53927;SDS011;39837;47.630;18.822;2022-09-09T14:47:25;0.70;;;0.70;;
53927;SDS011;39837;47.630;18.822;2022-09-09T14:50:10;4.55;;;0.70;;
53927;SDS011;39837;47.630;18.822;2022-09-09T14:52:55;0.80;;;0.80;;
53927;SDS011;39837;47.630;18.822;2022-09-09T14:55:40;0.95;;;0.77;;
53927;SDS011;39837;47.630;18.822;2022-09-09T14:58:24;0.77;;;0.77;;
53927;SDS011;39837;47.630;18.822;2022-09-09T15:01:09;1.25;;;1.05;;
53927;SDS011;39837;47.630;18.822;2022-09-09T15:03:56;0.90;;;0.90;;
53927;SDS011;39837;47.630;18.822;2022-09-09T15:06:42;0.70;;;0.70;;
53927;SDS011;39837;47.630;18.822;2022-09-09T15:09:30;2.72;;;0.77;;
53927;SDS011;39837;47.630;18.822;2022-09-09T15:12:15;2.97;;;1.00;;
53927;SDS011;39837;47.630;18.822;2022-09-09T15:14:59;0.50;;;0.50;;
53927;SDS011;39837;47.630;18.822;2022-09-09T15:17:43;0.50;;;0.50;;
53927;SDS011;39837;47.630;18.822;2022-09-09T15:20:27;0.65;;;0.65;;
53927;SDS011;39837;47.630;18.822;2022-09-09T15:23:11;0.57;;;0.57;;
53927;SDS011;39837;47.630;18.822;2022-09-09T15:25:55;0.70;;;0.70;;
53927;SDS011;39837;47.630;18.822;2022-09-09T15:28:40;0.68;;;0.68;;
53927;SDS011;39837;47.630;18.822;2022-09-09T15:31:26;0.73;;;0.65;;
53927;SDS011;39837;47.630;18.822;2022-09-09T15:34:14;0.80;;;0.80;;
53927;SDS011;39837;47.630;18.822;2022-09-09T15:36:59;0.60;;;0.60;;
53927;SDS011;39837;47.630;18.822;2022-09-09T15:39:46;0.70;;;0.70;;
53927;SDS011;39837;47.630;18.822;2022-09-09T15:42:30;0.73;;;0.73;;
53927;SDS011;39837;47.630;18.822;2022-09-09T15:45:14;0.70;;;0.70;;
53927;SDS011;39837;47.630;18.822;2022-09-09T15:47:59;0.82;;;0.65;;
53927;SDS011;39837;47.630;18.822;2022-09-09T15:50:44;0.75;;;0.75;;
53927;SDS011;39837;47.630;18.822;2022-09-09T15:53:28;0.75;;;0.70;;
53927;SDS011;39837;47.630;18.822;2022-09-09T15:56:12;0.55;;;0.55;;
53927;SDS011;39837;47.630;18.822;2022-09-09T15:58:57;0.85;;;0.85;;
53927;SDS011;39837;47.630;18.822;2022-09-09T16:01:41;0.77;;;0.77;;
53927;SDS011;39837;47.630;18.822;2022-09-09T16:04:27;3.63;;;0.80;;
53927;SDS011;39837;47.630;18.822;2022-09-09T16:07:12;0.70;;;0.70;;
53927;SDS011;39837;47.630;18.822;2022-09-09T16:09:57;0.70;;;0.70;;
53927;SDS011;39837;47.630;18.822;2022-09-09T16:12:40;0.60;;;0.60;;
53927;SDS011;39837;47.630;18.822;2022-09-09T16:15:24;1.55;;;0.80;;
53927;SDS011;39837;47.630;18.822;2022-09-09T16:18:08;0.60;;;0.60;;
53927;SDS011;39837;47.630;18.822;2022-09-09T16:20:53;0.82;;;0.77;;
53927;SDS011;39837;47.630;18.822;2022-09-09T16:23:38;0.60;;;0.60;;
53927;SDS011;39837;47.630;18.822;2022-09-09T16:26:22;0.90;;;0.90;;
53927;SDS011;39837;47.630;18.822;2022-09-09T16:29:06;4.22;;;1.10;;
53927;SDS011;39837;47.630;18.822;2022-09-09T16:31:50;0.70;;;0.70;;
53927;SDS011;39837;47.630;18.822;2022-09-09T16:34:35;2.85;;;0.90;;
53927;SDS011;39837;47.630;18.822;2022-09-09T16:37:19;0.77;;;0.77;;
53927;SDS011;39837;47.630;18.822;2022-09-09T16:40:03;0.80;;;0.80;;
53927;SDS011;39837;47.630;18.822;2022-09-09T16:42:48;0.70;;;0.70;;
53927;SDS011;39837;47.630;18.822;2022-09-09T16:45:32;0.70;;;0.70;;
53927;SDS011;39837;47.630;18.822;2022-09-09T16:48:17;0.70;;;0.70;;
53927;SDS011;39837;47.630;18.822;2022-09-09T16:51:01;5.50;;;0.90;;
53927;SDS011;39837;47.630;18.822;2022-09-09T16:53:47;0.80;;;0.80;;
53927;SDS011;39837;47.630;18.822;2022-09-09T16:56:31;1.02;;;1.00;;
53927;SDS011;39837;47.630;18.822;2022-09-09T16:59:18;0.90;;;0.90;;
53927;SDS011;39837;47.630;18.822;2022-09-09T17:02:03;1.10;;;1.00;;
53927;SDS011;39837;47.630;18.822;2022-09-09T17:04:48;11.13;;;1.03;;
53927;SDS011;39837;47.630;18.822;2022-09-09T17:07:32;10.55;;;1.10;;
53927;SDS011;39837;47.630;18.822;2022-09-09T17:10:16;1.73;;;0.85;;
53927;SDS011;39837;47.630;18.822;2022-09-09T17:13:01;0.98;;;0.60;;
53927;SDS011;39837;47.630;18.822;2022-09-09T17:15:45;0.70;;;0.70;;
53927;SDS011;39837;47.630;18.822;2022-09-09T17:18:29;0.80;;;0.80;;
53927;SDS011;39837;47.630;18.822;2022-09-09T17:21:13;0.90;;;0.90;;
53927;SDS011;39837;47.630;18.822;2022-09-09T17:24:00;0.88;;;0.88;;
53927;SDS011;39837;47.630;18.822;2022-09-09T17:26:45;1.00;;;1.00;;
53927;SDS011;39837;47.630;18.822;2022-09-09T17:29:28;8.73;;;1.23;;
53927;SDS011;39837;47.630;18.822;2022-09-09T17:32:12;0.90;;;0.90;;
53927;SDS011;39837;47.630;18.822;2022-09-09T17:34:56;2.65;;;1.20;;
53927;SDS011;39837;47.630;18.822;2022-09-09T17:37:40;1.33;;;1.20;;
53927;SDS011;39837;47.630;18.822;2022-09-09T17:40:25;1.00;;;0.95;;
53927;SDS011;39837;47.630;18.822;2022-09-09T17:43:09;4.60;;;1.00;;
53927;SDS011;39837;47.630;18.822;2022-09-09T17:45:53;0.88;;;0.88;;
53927;SDS011;39837;47.630;18.822;2022-09-09T17:48:37;0.90;;;0.88;;
53927;SDS011;39837;47.630;18.822;2022-09-09T17:51:23;1.87;;;1.17;;
53927;SDS011;39837;47.630;18.822;2022-09-09T17:54:11;0.80;;;0.80;;
53927;SDS011;39837;47.630;18.822;2022-09-09T17:56:59;0.90;;;0.90;;
53927;SDS011;39837;47.630;18.822;2022-09-09T17:59:43;0.85;;;0.85;;
53927;SDS011;39837;47.630;18.822;2022-09-09T18:02:27;1.35;;;1.00;;
53927;SDS011;39837;47.630;18.822;2022-09-09T18:05:12;0.95;;;0.95;;
53927;SDS011;39837;47.630;18.822;2022-09-09T18:07:57;1.10;;;1.10;;
53927;SDS011;39837;47.630;18.822;2022-09-09T18:10:41;2.83;;;1.30;;
53927;SDS011;39837;47.630;18.822;2022-09-09T18:13:27;1.02;;;0.93;;
53927;SDS011;39837;47.630;18.822;2022-09-09T18:16:12;3.90;;;1.15;;
53927;SDS011;39837;47.630;18.822;2022-09-09T18:18:57;0.73;;;0.73;;
53927;SDS011;39837;47.630;18.822;2022-09-09T18:21:41;4.80;;;1.13;;
53927;SDS011;39837;47.630;18.822;2022-09-09T18:24:26;9.73;;;1.45;;
53927;SDS011;39837;47.630;18.822;2022-09-09T18:27:10;0.95;;;0.95;;
53927;SDS011;39837;47.630;18.822;2022-09-09T18:29:55;0.77;;;0.77;;
53927;SDS011;39837;47.630;18.822;2022-09-09T18:32:39;0.75;;;0.75;;
53927;SDS011;39837;47.630;18.822;2022-09-09T18:35:23;0.77;;;0.77;;
53927;SDS011;39837;47.630;18.822;2022-09-09T18:38:07;0.68;;;0.68;;
53927;SDS011;39837;47.630;18.822;2022-09-09T18:40:51;0.90;;;0.90;;
53927;SDS011;39837;47.630;18.822;2022-09-09T18:43:36;3.83;;;1.27;;
53927;SDS011;39837;47.630;18.822;2022-09-09T18:46:20;1.05;;;1.00;;
53927;SDS011;39837;47.630;18.822;2022-09-09T18:49:05;1.15;;;1.00;;
53927;SDS011;39837;47.630;18.822;2022-09-09T18:51:50;1.00;;;1.00;;
53927;SDS011;39837;47.630;18.822;2022-09-09T18:54:33;1.10;;;1.10;;